sensor_id;sensor_type;location;lat;lon;timestamp;P1;durP1;ratioP1;P2;durP2;ratioP2
5742;SDS011;2896;53.500;10.020;2023-02-18T00:01:22;43.00;;;5.30;;
5742;SDS011;2896;53.500;10.020;2023-02-18T00:03:50;35.03;;;5.70;;
5742;SDS011;2896;53.500;10.020;2023-02-18T00:06:18;43.33;;;5.50;;
5742;SDS011;2896;53.500;10.020;2023-02-18T00:08:46;27.20;;;4.73;;
5742;SDS011;2896;53.500;10.020;2023-02-18T00:11:13;38.70;;;5.43;;
5742;SDS011;2896;53.500;10.020;2023-02-18T00:13:42;40.50;;;5.43;;
5742;SDS011;2896;53.500;10.020;2023-02-18T00:16:14;36.60;;;4.80;;
5742;SDS011;2896;53.500;10.020;2023-02-18T00:18:40;30.27;;;5.33;;
5742;SDS011;2896;53.500;10.020;2023-02-18T00:21:07;43.83;;;5.90;;
5742;SDS011;2896;53.500;10.020;2023-02-18T00:23:34;24.33;;;5.00;;
5742;SDS011;2896;53.500;10.020;2023-02-18T00:26:02;25.07;;;4.70;;
5742;SDS011;2896;53.500;10.020;2023-02-18T00:28:30;27.70;;;4.93;;
5742;SDS011;2896;53.500;10.020;2023-02-18T00:30:59;27.87;;;5.37;;
5742;SDS011;2896;53.500;10.020;2023-02-18T00:33:30;31.17;;;5.70;;
5742;SDS011;2896;53.500;10.020;2023-02-18T00:35:59;31.67;;;4.60;;
5742;SDS011;2896;53.500;10.020;2023-02-18T00:38:27;27.57;;;5.07;;
5742;SDS011;2896;53.500;10.020;2023-02-18T00:40:54;36.27;;;4.80;;
5742;SDS011;2896;53.500;10.020;2023-02-18T00:43:20;21.83;;;4.43;;
5742;SDS011;2896;53.500;10.020;2023-02-18T00:45:47;20.87;;;3.70;;
5742;SDS011;2896;53.500;10.020;2023-02-18T00:48:15;33.77;;;4.03;;
5742;SDS011;2896;53.500;10.020;2023-02-18T00:50:41;34.33;;;5.90;;
5742;SDS011;2896;53.500;10.020;2023-02-18T00:53:08;27.17;;;4.80;;
5742;SDS011;2896;53.500;10.020;2023-02-18T00:55:37;25.03;;;5.57;;
5742;SDS011;2896;53.500;10.020;2023-02-18T00:58:04;47.20;;;6.13;;
5742;SDS011;2896;53.500;10.020;2023-02-18T01:00:31;23.43;;;4.63;;
5742;SDS011;2896;53.500;10.020;2023-02-18T01:02:58;34.00;;;5.30;;
5742;SDS011;2896;53.500;10.020;2023-02-18T01:05:25;31.03;;;3.97;;
5742;SDS011;2896;53.500;10.020;2023-02-18T01:07:53;29.67;;;3.73;;
5742;SDS011;2896;53.500;10.020;2023-02-18T01:10:20;18.47;;;3.80;;
5742;SDS011;2896;53.500;10.020;2023-02-18T01:12:46;23.63;;;4.83;;
5742;SDS011;2896;53.500;10.020;2023-02-18T01:15:14;24.10;;;4.30;;
5742;SDS011;2896;53.500;10.020;2023-02-18T01:17:41;30.23;;;4.20;;
5742;SDS011;2896;53.500;10.020;2023-02-18T01:20:08;27.77;;;4.47;;
5742;SDS011;2896;53.500;10.020;2023-02-18T01:22:37;27.60;;;4.80;;
5742;SDS011;2896;53.500;10.020;2023-02-18T01:25:04;34.60;;;4.27;;
5742;SDS011;2896;53.500;10.020;2023-02-18T01:27:32;26.97;;;4.77;;
5742;SDS011;2896;53.500;10.020;2023-02-18T01:29:58;27.10;;;5.40;;
5742;SDS011;2896;53.500;10.020;2023-02-18T01:32:25;31.33;;;5.33;;
5742;SDS011;2896;53.500;10.020;2023-02-18T01:34:52;46.53;;;5.30;;
5742;SDS011;2896;53.500;10.020;2023-02-18T01:37:18;27.17;;;4.60;;
5742;SDS011;2896;53.500;10.020;2023-02-18T01:39:46;30.43;;;5.40;;
5742;SDS011;2896;53.500;10.020;2023-02-18T01:42:17;29.53;;;5.17;;
5742;SDS011;2896;53.500;10.020;2023-02-18T01:44:45;36.93;;;5.83;;
5742;SDS011;2896;53.500;10.020;2023-02-18T01:47:13;29.60;;;3.77;;
5742;SDS011;2896;53.500;10.020;2023-02-18T01:49:39;33.57;;;5.07;;
5742;SDS011;2896;53.500;10.020;2023-02-18T01:52:10;24.80;;;4.50;;
5742;SDS011;2896;53.500;10.020;2023-02-18T01:54:41;32.53;;;4.53;;
5742;SDS011;2896;53.500;10.020;2023-02-18T01:57:11;12.47;;;4.10;;
5742;SDS011;2896;53.500;10.020;2023-02-18T01:59:42;23.87;;;4.00;;
5742;SDS011;2896;53.500;10.020;2023-02-18T02:02:11;22.07;;;3.67;;
5742;SDS011;2896;53.500;10.020;2023-02-18T02:04:41;25.63;;;4.13;;
5742;SDS011;2896;53.500;10.020;2023-02-18T02:07:08;22.90;;;4.83;;
5742;SDS011;2896;53.500;10.020;2023-02-18T02:09:35;22.30;;;3.73;;
5742;SDS011;2896;53.500;10.020;2023-02-18T02:12:12;20.73;;;3.23;;
5742;SDS011;2896;53.500;10.020;2023-02-18T02:14:53;25.77;;;4.23;;
5742;SDS011;2896;53.500;10.020;2023-02-18T02:17:36;24.10;;;4.20;;
5742;SDS011;2896;53.500;10.020;2023-02-18T02:20:30;16.97;;;3.97;;
5742;SDS011;2896;53.500;10.020;2023-02-18T02:26:55;9.33;;;3.67;;
5742;SDS011;2896;53.500;10.020;2023-02-18T02:29:46;17.67;;;4.73;;
5742;SDS011;2896;53.500;10.020;2023-02-18T02:32:57;32.07;;;4.70;;
5742;SDS011;2896;53.500;10.020;2023-02-18T02:35:39;16.07;;;3.53;;
5742;SDS011;2896;53.500;10.020;2023-02-18T02:38:11;19.33;;;4.60;;
5742;SDS011;2896;53.500;10.020;2023-02-18T02:40:45;36.97;;;5.90;;
5742;SDS011;2896;53.500;10.020;2023-02-18T02:43:18;33.13;;;4.67;;
5742;SDS011;2896;53.500;10.020;2023-02-18T02:45:57;25.57;;;4.60;;
5742;SDS011;2896;53.500;10.020;2023-02-18T02:48:28;38.20;;;4.77;;
5742;SDS011;2896;53.500;10.020;2023-02-18T02:51:03;23.87;;;4.40;;
5742;SDS011;2896;53.500;10.020;2023-02-18T02:53:34;43.13;;;5.77;;
5742;SDS011;2896;53.500;10.020;2023-02-18T02:56:04;24.27;;;3.93;;
5742;SDS011;2896;53.500;10.020;2023-02-18T02:58:31;28.00;;;3.77;;
5742;SDS011;2896;53.500;10.020;2023-02-18T03:01:05;37.30;;;4.00;;
5742;SDS011;2896;53.500;10.020;2023-02-18T03:03:54;25.60;;;4.10;;
5742;SDS011;2896;53.500;10.020;2023-02-18T03:06:40;17.23;;;3.97;;
5742;SDS011;2896;53.500;10.020;2023-02-18T03:09:26;21.00;;;4.40;;
5742;SDS011;2896;53.500;10.020;2023-02-18T03:12:06;30.13;;;4.07;;
5742;SDS011;2896;53.500;10.020;2023-02-18T03:14:43;19.23;;;3.20;;
5742;SDS011;2896;53.500;10.020;2023-02-18T03:17:14;27.73;;;4.10;;
5742;SDS011;2896;53.500;10.020;2023-02-18T03:19:49;25.10;;;3.27;;
5742;SDS011;2896;53.500;10.020;2023-02-18T03:22:22;23.50;;;3.50;;
5742;SDS011;2896;53.500;10.020;2023-02-18T03:24:54;35.07;;;4.60;;
5742;SDS011;2896;53.500;10.020;2023-02-18T03:27:22;18.07;;;4.40;;
5742;SDS011;2896;53.500;10.020;2023-02-18T03:29:54;26.70;;;4.80;;
5742;SDS011;2896;53.500;10.020;2023-02-18T03:32:24;16.77;;;4.13;;
5742;SDS011;2896;53.500;10.020;2023-02-18T03:34:54;26.60;;;4.70;;
5742;SDS011;2896;53.500;10.020;2023-02-18T03:37:26;25.17;;;3.70;;
5742;SDS011;2896;53.500;10.020;2023-02-18T03:39:54;28.13;;;4.30;;
5742;SDS011;2896;53.500;10.020;2023-02-18T03:42:24;27.10;;;4.27;;
5742;SDS011;2896;53.500;10.020;2023-02-18T03:44:50;20.67;;;3.27;;
5742;SDS011;2896;53.500;10.020;2023-02-18T03:47:17;18.70;;;3.13;;
5742;SDS011;2896;53.500;10.020;2023-02-18T03:49:44;24.17;;;3.97;;
5742;SDS011;2896;53.500;10.020;2023-02-18T03:52:10;20.83;;;3.63;;
5742;SDS011;2896;53.500;10.020;2023-02-18T03:54:38;18.83;;;4.57;;
5742;SDS011;2896;53.500;10.020;2023-02-18T03:57:05;17.60;;;3.33;;
5742;SDS011;2896;53.500;10.020;2023-02-18T03:59:32;21.40;;;3.90;;
5742;SDS011;2896;53.500;10.020;2023-02-18T04:01:59;11.80;;;3.17;;
5742;SDS011;2896;53.500;10.020;2023-02-18T04:04:26;17.63;;;3.90;;
5742;SDS011;2896;53.500;10.020;2023-02-18T04:06:53;28.03;;;5.20;;
5742;SDS011;2896;53.500;10.020;2023-02-18T04:09:20;14.10;;;2.77;;
5742;SDS011;2896;53.500;10.020;2023-02-18T04:11:48;22.90;;;5.17;;
5742;SDS011;2896;53.500;10.020;2023-02-18T04:14:14;17.83;;;2.90;;
5742;SDS011;2896;53.500;10.020;2023-02-18T04:16:41;15.80;;;3.10;;
5742;SDS011;2896;53.500;10.020;2023-02-18T04:19:08;8.80;;;3.10;;
5742;SDS011;2896;53.500;10.020;2023-02-18T04:21:34;9.40;;;2.80;;
5742;SDS011;2896;53.500;10.020;2023-02-18T04:24:01;21.07;;;3.60;;
5742;SDS011;2896;53.500;10.020;2023-02-18T04:26:28;20.23;;;4.37;;
5742;SDS011;2896;53.500;10.020;2023-02-18T04:28:56;14.23;;;3.10;;
5742;SDS011;2896;53.500;10.020;2023-02-18T04:31:22;18.87;;;3.43;;
5742;SDS011;2896;53.500;10.020;2023-02-18T04:33:49;14.67;;;3.73;;
5742;SDS011;2896;53.500;10.020;2023-02-18T04:36:16;24.43;;;4.30;;
5742;SDS011;2896;53.500;10.020;2023-02-18T04:38:42;15.67;;;2.93;;
5742;SDS011;2896;53.500;10.020;2023-02-18T04:41:09;16.07;;;3.53;;
5742;SDS011;2896;53.500;10.020;2023-02-18T04:43:36;16.57;;;3.20;;
5742;SDS011;2896;53.500;10.020;2023-02-18T04:46:04;14.80;;;4.07;;
5742;SDS011;2896;53.500;10.020;2023-02-18T04:48:31;21.23;;;3.80;;
5742;SDS011;2896;53.500;10.020;2023-02-18T04:50:59;13.17;;;2.90;;
5742;SDS011;2896;53.500;10.020;2023-02-18T04:53:25;23.77;;;5.37;;
5742;SDS011;2896;53.500;10.020;2023-02-18T04:55:52;10.93;;;2.80;;
5742;SDS011;2896;53.500;10.020;2023-02-18T04:58:19;11.90;;;3.10;;
5742;SDS011;2896;53.500;10.020;2023-02-18T05:00:46;17.00;;;4.13;;
5742;SDS011;2896;53.500;10.020;2023-02-18T05:03:15;9.97;;;2.30;;
5742;SDS011;2896;53.500;10.020;2023-02-18T05:05:42;15.93;;;3.13;;
5742;SDS011;2896;53.500;10.020;2023-02-18T05:08:09;12.20;;;2.80;;
5742;SDS011;2896;53.500;10.020;2023-02-18T05:10:37;12.17;;;2.53;;
5742;SDS011;2896;53.500;10.020;2023-02-18T05:13:04;13.30;;;2.70;;
5742;SDS011;2896;53.500;10.020;2023-02-18T05:15:30;9.53;;;2.80;;
5742;SDS011;2896;53.500;10.020;2023-02-18T05:17:57;16.83;;;3.40;;
5742;SDS011;2896;53.500;10.020;2023-02-18T05:20:25;14.13;;;3.00;;
5742;SDS011;2896;53.500;10.020;2023-02-18T05:22:52;10.70;;;2.90;;
5742;SDS011;2896;53.500;10.020;2023-02-18T05:25:18;15.60;;;2.87;;
5742;SDS011;2896;53.500;10.020;2023-02-18T05:27:45;15.97;;;3.20;;
5742;SDS011;2896;53.500;10.020;2023-02-18T05:30:12;12.10;;;2.90;;
5742;SDS011;2896;53.500;10.020;2023-02-18T05:32:38;18.37;;;3.73;;
5742;SDS011;2896;53.500;10.020;2023-02-18T05:35:05;12.73;;;2.80;;
5742;SDS011;2896;53.500;10.020;2023-02-18T05:37:34;14.60;;;3.47;;
5742;SDS011;2896;53.500;10.020;2023-02-18T05:40:00;14.37;;;2.63;;
5742;SDS011;2896;53.500;10.020;2023-02-18T05:42:28;13.13;;;2.60;;
5742;SDS011;2896;53.500;10.020;2023-02-18T05:44:54;15.33;;;3.40;;
5742;SDS011;2896;53.500;10.020;2023-02-18T05:47:21;14.57;;;2.93;;
5742;SDS011;2896;53.500;10.020;2023-02-18T05:49:47;18.00;;;5.20;;
5742;SDS011;2896;53.500;10.020;2023-02-18T05:52:14;11.03;;;3.53;;
5742;SDS011;2896;53.500;10.020;2023-02-18T05:54:43;12.57;;;3.67;;
5742;SDS011;2896;53.500;10.020;2023-02-18T05:57:09;11.03;;;2.57;;
5742;SDS011;2896;53.500;10.020;2023-02-18T05:59:38;20.23;;;2.97;;
5742;SDS011;2896;53.500;10.020;2023-02-18T06:02:04;16.37;;;2.50;;
5742;SDS011;2896;53.500;10.020;2023-02-18T06:04:31;24.57;;;3.87;;
5742;SDS011;2896;53.500;10.020;2023-02-18T06:06:58;18.30;;;3.30;;
5742;SDS011;2896;53.500;10.020;2023-02-18T06:09:24;13.50;;;2.57;;
5742;SDS011;2896;53.500;10.020;2023-02-18T06:11:52;12.50;;;3.40;;
5742;SDS011;2896;53.500;10.020;2023-02-18T06:14:19;13.97;;;2.53;;
5742;SDS011;2896;53.500;10.020;2023-02-18T06:16:46;21.10;;;3.60;;
5742;SDS011;2896;53.500;10.020;2023-02-18T06:19:12;8.60;;;2.23;;
5742;SDS011;2896;53.500;10.020;2023-02-18T06:21:39;12.90;;;3.10;;
5742;SDS011;2896;53.500;10.020;2023-02-18T06:24:06;10.47;;;2.50;;
5742;SDS011;2896;53.500;10.020;2023-02-18T06:26:32;7.17;;;2.57;;
5742;SDS011;2896;53.500;10.020;2023-02-18T06:29:00;16.60;;;2.70;;
5742;SDS011;2896;53.500;10.020;2023-02-18T06:31:27;14.73;;;3.27;;
5742;SDS011;2896;53.500;10.020;2023-02-18T06:33:54;13.13;;;2.93;;
5742;SDS011;2896;53.500;10.020;2023-02-18T06:36:21;10.90;;;2.77;;
5742;SDS011;2896;53.500;10.020;2023-02-18T06:38:47;15.70;;;3.30;;
5742;SDS011;2896;53.500;10.020;2023-02-18T06:41:14;21.40;;;3.53;;
5742;SDS011;2896;53.500;10.020;2023-02-18T06:43:41;12.80;;;3.67;;
5742;SDS011;2896;53.500;10.020;2023-02-18T06:46:09;11.33;;;4.03;;
5742;SDS011;2896;53.500;10.020;2023-02-18T06:48:35;14.43;;;3.57;;
5742;SDS011;2896;53.500;10.020;2023-02-18T06:51:03;18.03;;;2.73;;
5742;SDS011;2896;53.500;10.020;2023-02-18T06:53:29;6.67;;;2.40;;
5742;SDS011;2896;53.500;10.020;2023-02-18T06:55:56;12.23;;;3.23;;
5742;SDS011;2896;53.500;10.020;2023-02-18T06:58:23;14.43;;;2.90;;
5742;SDS011;2896;53.500;10.020;2023-02-18T07:00:50;16.20;;;4.20;;
5742;SDS011;2896;53.500;10.020;2023-02-18T07:03:18;5.63;;;2.40;;
5742;SDS011;2896;53.500;10.020;2023-02-18T07:05:44;9.73;;;3.20;;
5742;SDS011;2896;53.500;10.020;2023-02-18T07:08:11;17.47;;;3.37;;
5742;SDS011;2896;53.500;10.020;2023-02-18T07:10:38;18.37;;;4.27;;
5742;SDS011;2896;53.500;10.020;2023-02-18T07:13:05;16.80;;;2.80;;
5742;SDS011;2896;53.500;10.020;2023-02-18T07:15:31;24.90;;;4.43;;
5742;SDS011;2896;53.500;10.020;2023-02-18T07:17:58;15.27;;;3.20;;
5742;SDS011;2896;53.500;10.020;2023-02-18T07:20:26;12.47;;;2.80;;
5742;SDS011;2896;53.500;10.020;2023-02-18T07:22:54;13.60;;;3.43;;
5742;SDS011;2896;53.500;10.020;2023-02-18T07:25:22;17.00;;;3.30;;
5742;SDS011;2896;53.500;10.020;2023-02-18T07:27:49;12.90;;;3.07;;
5742;SDS011;2896;53.500;10.020;2023-02-18T07:30:16;17.20;;;3.57;;
5742;SDS011;2896;53.500;10.020;2023-02-18T07:32:43;14.20;;;3.07;;
5742;SDS011;2896;53.500;10.020;2023-02-18T07:35:12;10.30;;;3.43;;
5742;SDS011;2896;53.500;10.020;2023-02-18T07:37:41;13.43;;;3.17;;
5742;SDS011;2896;53.500;10.020;2023-02-18T07:40:09;18.20;;;3.30;;
5742;SDS011;2896;53.500;10.020;2023-02-18T07:42:38;16.33;;;3.40;;
5742;SDS011;2896;53.500;10.020;2023-02-18T07:45:05;18.00;;;3.00;;
5742;SDS011;2896;53.500;10.020;2023-02-18T07:47:32;15.87;;;2.87;;
5742;SDS011;2896;53.500;10.020;2023-02-18T07:49:59;5.20;;;2.60;;
5742;SDS011;2896;53.500;10.020;2023-02-18T07:52:26;14.30;;;3.33;;
5742;SDS011;2896;53.500;10.020;2023-02-18T07:54:54;10.23;;;2.93;;
5742;SDS011;2896;53.500;10.020;2023-02-18T07:57:20;13.20;;;3.47;;
5742;SDS011;2896;53.500;10.020;2023-02-18T07:59:47;13.90;;;3.60;;
5742;SDS011;2896;53.500;10.020;2023-02-18T08:02:15;12.10;;;3.40;;
5742;SDS011;2896;53.500;10.020;2023-02-18T08:04:43;11.33;;;3.47;;
5742;SDS011;2896;53.500;10.020;2023-02-18T08:07:11;22.17;;;4.50;;
5742;SDS011;2896;53.500;10.020;2023-02-18T08:09:38;20.67;;;4.13;;
5742;SDS011;2896;53.500;10.020;2023-02-18T08:12:06;20.33;;;5.20;;
5742;SDS011;2896;53.500;10.020;2023-02-18T08:14:33;7.93;;;3.07;;
5742;SDS011;2896;53.500;10.020;2023-02-18T08:17:00;15.20;;;4.00;;
5742;SDS011;2896;53.500;10.020;2023-02-18T08:19:26;14.13;;;3.80;;
5742;SDS011;2896;53.500;10.020;2023-02-18T08:21:53;21.47;;;4.00;;
5742;SDS011;2896;53.500;10.020;2023-02-18T08:24:19;13.43;;;4.47;;
5742;SDS011;2896;53.500;10.020;2023-02-18T08:26:46;15.47;;;4.20;;
5742;SDS011;2896;53.500;10.020;2023-02-18T08:29:14;36.93;;;6.33;;
5742;SDS011;2896;53.500;10.020;2023-02-18T08:31:40;9.80;;;4.00;;
5742;SDS011;2896;53.500;10.020;2023-02-18T08:34:07;12.97;;;4.03;;
5742;SDS011;2896;53.500;10.020;2023-02-18T08:36:34;13.60;;;4.23;;
5742;SDS011;2896;53.500;10.020;2023-02-18T08:39:01;12.40;;;3.57;;
5742;SDS011;2896;53.500;10.020;2023-02-18T08:41:28;6.63;;;2.80;;
5742;SDS011;2896;53.500;10.020;2023-02-18T08:43:55;17.27;;;3.93;;
5742;SDS011;2896;53.500;10.020;2023-02-18T08:46:22;14.27;;;4.20;;
5742;SDS011;2896;53.500;10.020;2023-02-18T08:48:49;16.70;;;4.20;;
5742;SDS011;2896;53.500;10.020;2023-02-18T08:51:17;16.70;;;4.30;;
5742;SDS011;2896;53.500;10.020;2023-02-18T08:53:45;18.83;;;4.50;;
5742;SDS011;2896;53.500;10.020;2023-02-18T08:56:12;18.27;;;4.30;;
5742;SDS011;2896;53.500;10.020;2023-02-18T08:58:40;16.23;;;5.00;;
5742;SDS011;2896;53.500;10.020;2023-02-18T09:01:07;19.07;;;4.70;;
5742;SDS011;2896;53.500;10.020;2023-02-18T09:03:37;13.10;;;3.90;;
5742;SDS011;2896;53.500;10.020;2023-02-18T09:06:05;12.90;;;4.33;;
5742;SDS011;2896;53.500;10.020;2023-02-18T09:08:31;15.10;;;4.10;;
5742;SDS011;2896;53.500;10.020;2023-02-18T09:10:59;12.93;;;4.17;;
5742;SDS011;2896;53.500;10.020;2023-02-18T09:13:28;24.63;;;4.30;;
5742;SDS011;2896;53.500;10.020;2023-02-18T09:15:55;13.87;;;3.90;;
5742;SDS011;2896;53.500;10.020;2023-02-18T09:18:24;26.93;;;4.97;;
5742;SDS011;2896;53.500;10.020;2023-02-18T09:20:54;21.97;;;4.90;;
5742;SDS011;2896;53.500;10.020;2023-02-18T09:23:21;8.67;;;4.00;;
5742;SDS011;2896;53.500;10.020;2023-02-18T09:25:48;19.80;;;4.37;;
5742;SDS011;2896;53.500;10.020;2023-02-18T09:28:15;16.50;;;4.67;;
5742;SDS011;2896;53.500;10.020;2023-02-18T09:30:41;13.60;;;4.90;;
5742;SDS011;2896;53.500;10.020;2023-02-18T09:33:08;10.93;;;3.60;;
5742;SDS011;2896;53.500;10.020;2023-02-18T09:35:37;19.77;;;4.40;;
5742;SDS011;2896;53.500;10.020;2023-02-18T09:38:05;11.80;;;4.70;;
5742;SDS011;2896;53.500;10.020;2023-02-18T09:40:33;10.77;;;4.37;;
5742;SDS011;2896;53.500;10.020;2023-02-18T09:43:03;11.70;;;5.10;;
5742;SDS011;2896;53.500;10.020;2023-02-18T09:45:30;9.77;;;4.60;;
5742;SDS011;2896;53.500;10.020;2023-02-18T09:47:58;11.93;;;4.40;;
5742;SDS011;2896;53.500;10.020;2023-02-18T09:50:27;14.37;;;5.60;;
5742;SDS011;2896;53.500;10.020;2023-02-18T09:52:58;10.23;;;4.90;;
5742;SDS011;2896;53.500;10.020;2023-02-18T09:55:28;16.10;;;5.67;;
5742;SDS011;2896;53.500;10.020;2023-02-18T09:57:58;12.70;;;5.80;;
5742;SDS011;2896;53.500;10.020;2023-02-18T10:00:28;12.97;;;5.67;;
5742;SDS011;2896;53.500;10.020;2023-02-18T10:03:00;12.20;;;5.80;;
5742;SDS011;2896;53.500;10.020;2023-02-18T10:05:30;5.40;;;4.50;;
5742;SDS011;2896;53.500;10.020;2023-02-18T10:07:59;9.27;;;5.80;;
5742;SDS011;2896;53.500;10.020;2023-02-18T10:10:32;8.20;;;5.90;;
5742;SDS011;2896;53.500;10.020;2023-02-18T10:13:02;7.90;;;4.67;;
5742;SDS011;2896;53.500;10.020;2023-02-18T10:15:32;7.70;;;5.00;;
5742;SDS011;2896;53.500;10.020;2023-02-18T10:17:59;5.27;;;4.50;;
5742;SDS011;2896;53.500;10.020;2023-02-18T10:20:27;8.57;;;4.70;;
5742;SDS011;2896;53.500;10.020;2023-02-18T10:22:56;11.50;;;4.97;;
5742;SDS011;2896;53.500;10.020;2023-02-18T10:25:25;4.47;;;4.20;;
5742;SDS011;2896;53.500;10.020;2023-02-18T10:27:54;7.30;;;5.13;;
5742;SDS011;2896;53.500;10.020;2023-02-18T10:30:26;4.47;;;4.00;;
5742;SDS011;2896;53.500;10.020;2023-02-18T10:32:58;10.40;;;6.03;;
5742;SDS011;2896;53.500;10.020;2023-02-18T10:35:38;6.03;;;5.30;;
5742;SDS011;2896;53.500;10.020;2023-02-18T10:38:11;8.10;;;4.87;;
5742;SDS011;2896;53.500;10.020;2023-02-18T10:40:48;7.50;;;4.83;;
5742;SDS011;2896;53.500;10.020;2023-02-18T10:43:24;6.97;;;4.60;;
5742;SDS011;2896;53.500;10.020;2023-02-18T10:46:03;5.17;;;4.37;;
5742;SDS011;2896;53.500;10.020;2023-02-18T10:48:51;5.50;;;4.33;;
5742;SDS011;2896;53.500;10.020;2023-02-18T10:51:27;9.60;;;4.33;;
5742;SDS011;2896;53.500;10.020;2023-02-18T10:53:55;5.87;;;4.90;;
5742;SDS011;2896;53.500;10.020;2023-02-18T10:56:31;6.37;;;5.20;;
5742;SDS011;2896;53.500;10.020;2023-02-18T10:59:03;4.80;;;4.40;;
5742;SDS011;2896;53.500;10.020;2023-02-18T11:01:35;6.03;;;5.17;;
5742;SDS011;2896;53.500;10.020;2023-02-18T11:04:04;8.23;;;6.30;;
5742;SDS011;2896;53.500;10.020;2023-02-18T11:06:37;11.60;;;6.10;;
5742;SDS011;2896;53.500;10.020;2023-02-18T11:09:06;6.17;;;4.80;;
5742;SDS011;2896;53.500;10.020;2023-02-18T11:11:47;8.93;;;6.63;;
5742;SDS011;2896;53.500;10.020;2023-02-18T11:14:20;9.87;;;7.43;;
5742;SDS011;2896;53.500;10.020;2023-02-18T11:17:13;9.70;;;6.83;;
5742;SDS011;2896;53.500;10.020;2023-02-18T11:19:55;7.67;;;6.47;;
5742;SDS011;2896;53.500;10.020;2023-02-18T11:22:24;5.60;;;5.00;;
5742;SDS011;2896;53.500;10.020;2023-02-18T11:24:54;6.07;;;4.80;;
5742;SDS011;2896;53.500;10.020;2023-02-18T11:27:24;4.23;;;3.53;;
5742;SDS011;2896;53.500;10.020;2023-02-18T11:29:59;2.90;;;2.70;;
5742;SDS011;2896;53.500;10.020;2023-02-18T11:32:30;3.13;;;2.60;;
5742;SDS011;2896;53.500;10.020;2023-02-18T11:35:00;2.20;;;2.00;;
5742;SDS011;2896;53.500;10.020;2023-02-18T11:37:28;1.60;;;1.50;;
5742;SDS011;2896;53.500;10.020;2023-02-18T11:39:58;2.00;;;1.67;;
5742;SDS011;2896;53.500;10.020;2023-02-18T11:42:25;6.63;;;1.40;;
5742;SDS011;2896;53.500;10.020;2023-02-18T11:44:53;1.40;;;1.30;;
5742;SDS011;2896;53.500;10.020;2023-02-18T11:47:24;2.83;;;1.80;;
5742;SDS011;2896;53.500;10.020;2023-02-18T11:52:42;1.33;;;1.33;;
5742;SDS011;2896;53.500;10.020;2023-02-18T11:55:13;1.10;;;1.10;;
5742;SDS011;2896;53.500;10.020;2023-02-18T11:57:43;3.90;;;1.50;;
5742;SDS011;2896;53.500;10.020;2023-02-18T12:00:15;5.93;;;1.60;;
5742;SDS011;2896;53.500;10.020;2023-02-18T12:02:48;1.10;;;1.10;;
5742;SDS011;2896;53.500;10.020;2023-02-18T12:05:16;1.27;;;1.20;;
5742;SDS011;2896;53.500;10.020;2023-02-18T12:07:47;1.10;;;1.10;;
5742;SDS011;2896;53.500;10.020;2023-02-18T12:10:21;1.00;;;1.00;;
5742;SDS011;2896;53.500;10.020;2023-02-18T12:12:53;0.90;;;0.90;;
5742;SDS011;2896;53.500;10.020;2023-02-18T12:15:28;1.10;;;1.10;;
5742;SDS011;2896;53.500;10.020;2023-02-18T12:18:12;1.07;;;1.07;;
5742;SDS011;2896;53.500;10.020;2023-02-18T12:20:53;1.10;;;1.10;;
5742;SDS011;2896;53.500;10.020;2023-02-18T12:23:33;3.80;;;1.00;;
5742;SDS011;2896;53.500;10.020;2023-02-18T12:26:05;2.50;;;0.80;;
5742;SDS011;2896;53.500;10.020;2023-02-18T12:28:44;0.80;;;0.80;;
5742;SDS011;2896;53.500;10.020;2023-02-18T12:31:37;1.20;;;1.10;;
5742;SDS011;2896;53.500;10.020;2023-02-18T12:34:24;1.03;;;1.03;;
5742;SDS011;2896;53.500;10.020;2023-02-18T12:37:04;1.20;;;1.20;;
5742;SDS011;2896;53.500;10.020;2023-02-18T12:39:45;2.63;;;1.37;;
5742;SDS011;2896;53.500;10.020;2023-02-18T12:42:24;1.40;;;1.30;;
5742;SDS011;2896;53.500;10.020;2023-02-18T12:45:05;2.03;;;1.93;;
5742;SDS011;2896;53.500;10.020;2023-02-18T12:47:49;6.73;;;2.30;;
5742;SDS011;2896;53.500;10.020;2023-02-18T12:50:42;4.57;;;3.60;;
5742;SDS011;2896;53.500;10.020;2023-02-18T12:53:42;2.90;;;2.60;;
5742;SDS011;2896;53.500;10.020;2023-02-18T12:59:20;12.40;;;3.30;;
5742;SDS011;2896;53.500;10.020;2023-02-18T13:02:05;9.97;;;3.00;;
5742;SDS011;2896;53.500;10.020;2023-02-18T13:04:47;15.30;;;2.83;;
5742;SDS011;2896;53.500;10.020;2023-02-18T13:07:29;14.30;;;4.00;;
5742;SDS011;2896;53.500;10.020;2023-02-18T13:13:25;12.00;;;3.80;;
5742;SDS011;2896;53.500;10.020;2023-02-18T13:15:57;23.77;;;7.87;;
5742;SDS011;2896;53.500;10.020;2023-02-18T13:18:27;30.23;;;6.80;;
5742;SDS011;2896;53.500;10.020;2023-02-18T13:20:58;23.50;;;4.33;;
5742;SDS011;2896;53.500;10.020;2023-02-18T13:23:29;24.63;;;5.20;;
5742;SDS011;2896;53.500;10.020;2023-02-18T13:25:59;18.63;;;5.20;;
5742;SDS011;2896;53.500;10.020;2023-02-18T13:28:28;28.87;;;6.03;;
5742;SDS011;2896;53.500;10.020;2023-02-18T13:31:06;28.67;;;7.93;;
5742;SDS011;2896;53.500;10.020;2023-02-18T13:33:53;32.93;;;6.07;;
5742;SDS011;2896;53.500;10.020;2023-02-18T13:36:30;25.23;;;5.70;;
5742;SDS011;2896;53.500;10.020;2023-02-18T13:39:05;25.57;;;6.10;;
5742;SDS011;2896;53.500;10.020;2023-02-18T13:41:36;14.50;;;5.00;;
5742;SDS011;2896;53.500;10.020;2023-02-18T13:44:08;21.10;;;5.70;;
5742;SDS011;2896;53.500;10.020;2023-02-18T13:46:55;28.50;;;5.97;;
5742;SDS011;2896;53.500;10.020;2023-02-18T13:49:24;27.57;;;5.90;;
5742;SDS011;2896;53.500;10.020;2023-02-18T13:51:52;26.97;;;5.20;;
5742;SDS011;2896;53.500;10.020;2023-02-18T13:54:24;37.27;;;6.23;;
5742;SDS011;2896;53.500;10.020;2023-02-18T13:56:54;37.17;;;7.97;;
5742;SDS011;2896;53.500;10.020;2023-02-18T13:59:26;29.40;;;6.80;;
5742;SDS011;2896;53.500;10.020;2023-02-18T14:02:06;28.03;;;6.40;;
5742;SDS011;2896;53.500;10.020;2023-02-18T14:04:54;32.60;;;4.87;;
5742;SDS011;2896;53.500;10.020;2023-02-18T14:07:26;34.63;;;5.90;;
5742;SDS011;2896;53.500;10.020;2023-02-18T14:10:09;33.17;;;5.20;;
5742;SDS011;2896;53.500;10.020;2023-02-18T14:13:00;39.40;;;6.67;;
5742;SDS011;2896;53.500;10.020;2023-02-18T14:15:58;36.03;;;5.93;;
5742;SDS011;2896;53.500;10.020;2023-02-18T14:18:33;27.23;;;4.97;;
5742;SDS011;2896;53.500;10.020;2023-02-18T14:21:20;21.40;;;5.27;;
5742;SDS011;2896;53.500;10.020;2023-02-18T14:24:00;28.87;;;5.83;;
5742;SDS011;2896;53.500;10.020;2023-02-18T14:26:31;25.23;;;7.50;;
5742;SDS011;2896;53.500;10.020;2023-02-18T14:29:12;19.87;;;5.87;;
5742;SDS011;2896;53.500;10.020;2023-02-18T14:31:44;20.53;;;5.60;;
5742;SDS011;2896;53.500;10.020;2023-02-18T14:34:29;17.97;;;4.20;;
5742;SDS011;2896;53.500;10.020;2023-02-18T14:37:19;12.17;;;3.70;;
5742;SDS011;2896;53.500;10.020;2023-02-18T14:39:56;11.47;;;3.40;;
5742;SDS011;2896;53.500;10.020;2023-02-18T14:42:33;11.83;;;4.17;;
5742;SDS011;2896;53.500;10.020;2023-02-18T14:45:14;7.20;;;2.57;;
5742;SDS011;2896;53.500;10.020;2023-02-18T14:47:53;8.53;;;2.60;;
5742;SDS011;2896;53.500;10.020;2023-02-18T14:50:32;4.90;;;2.40;;
5742;SDS011;2896;53.500;10.020;2023-02-18T14:53:02;5.40;;;2.60;;
5742;SDS011;2896;53.500;10.020;2023-02-18T14:55:32;3.50;;;3.20;;
5742;SDS011;2896;53.500;10.020;2023-02-18T14:58:04;3.03;;;2.60;;
5742;SDS011;2896;53.500;10.020;2023-02-18T15:00:34;2.73;;;2.63;;
5742;SDS011;2896;53.500;10.020;2023-02-18T15:03:08;2.83;;;2.50;;
5742;SDS011;2896;53.500;10.020;2023-02-18T15:05:38;2.33;;;2.23;;
5742;SDS011;2896;53.500;10.020;2023-02-18T15:08:05;3.07;;;2.87;;
5742;SDS011;2896;53.500;10.020;2023-02-18T15:10:39;2.70;;;2.60;;
5742;SDS011;2896;53.500;10.020;2023-02-18T15:13:11;3.70;;;3.13;;
5742;SDS011;2896;53.500;10.020;2023-02-18T15:15:41;2.93;;;2.80;;
5742;SDS011;2896;53.500;10.020;2023-02-18T15:18:12;4.13;;;3.73;;
5742;SDS011;2896;53.500;10.020;2023-02-18T15:20:46;3.60;;;3.40;;
5742;SDS011;2896;53.500;10.020;2023-02-18T15:23:14;4.13;;;3.73;;
5742;SDS011;2896;53.500;10.020;2023-02-18T15:25:41;5.50;;;4.77;;